Glacier Park International Airport
KGPI : now visible

Airfield :











YOU CAN JOIN US ON...

 
LOGIN :

Register | Disclaimer

   EN    FR    IT 

 









Legend :    VFR   Marginal VFR   IFR   Intensive IFR   Very Intensive IFR
Visi :
Ceiling :
>= 8 km
>= 3000ft
5 to 8 km
1000 to 3000 ft
1500m to 5 km
500 to 1000 ft
800 to 1500m
200 to 500 ft
< 800m
< 200 ft
Symbols :   Thunderstorms  Fog  Heavy snow  Heavy precipitations  Wind > 20 kt






- Airport Elevation : 2977 ft
- IATA code : FCA


KGPI - Glacier Park International

CURRENT METAR :
  • 301655Z 04007KT 3SM FU CLR 28/11 A3016 RMK AO2 SLP192 T02830106

EXPIRED METARs :
  • 301555Z 05009KT 3SM FU CLR 26/09 A3017 RMK AO2 SLP192 T02560094
  • 301455Z 15004KT 3SM FU CLR 20/09 A3017 RMK AO2 SLP194 T02000094 53012
  • 301355Z 34006KT 3SM FU CLR 18/10 A3015 RMK AO2 SLP184 T01830100

TAF KGPI
Valid from the 30 at 12:00 until the 31 at 12:00 UTC


301120Z 3012/3112 VRB06KT 6SM FU SKC
FM310300 VRB03KT 5SM FU SKC
KZLC FIR / North America



MET'MAP, your aeronautical weather chart ! - Copyright ORBIFLY December 2007 - Disclaimer

ORBIFLY MET'MAP TEAM :

Programming & Development : Alexandra Zaïnal
Concept & original design : Baudouin d'Aumeries
Assistance for programming : Marc-Olivier Méhu
Technical & hardware support : Manuel Goepfert

Contact : metmap@orbifly.com




SOURCES & CREDITS :

   NOAA       Earth
Advisory